createdAt,value
2023-03-01T00:01:42.119Z,16.02
2023-03-01T00:04:09.198Z,16.67
2023-03-01T00:06:36.419Z,15.52
2023-03-01T00:09:05.087Z,15.30
2023-03-01T00:11:35.565Z,15.23
2023-03-01T00:14:05.958Z,15.13
2023-03-01T00:16:41.179Z,13.70
2023-03-01T00:19:14.334Z,15.00
2023-03-01T00:21:41.651Z,15.20
2023-03-01T00:24:09.600Z,13.52
2023-03-01T00:26:37.569Z,13.90
2023-03-01T00:29:04.955Z,12.27
2023-03-01T00:31:34.743Z,15.45
2023-03-01T00:34:05.995Z,15.75
2023-03-01T00:36:37.761Z,13.52
2023-03-01T00:39:08.701Z,14.27
2023-03-01T00:41:35.808Z,12.75
2023-03-01T00:44:03.390Z,13.15
2023-03-01T00:46:31.918Z,13.45
2023-03-01T00:48:59.178Z,11.93
2023-03-01T00:51:29.293Z,14.45
2023-03-01T00:54:00.298Z,13.23
2023-03-01T00:56:28.512Z,12.85
2023-03-01T00:58:56.159Z,13.95
2023-03-01T01:01:30.761Z,14.40
2023-03-01T01:04:06.881Z,14.05
2023-03-01T01:06:38.029Z,18.27
2023-03-01T01:09:08.422Z,13.60
2023-03-01T01:11:39.958Z,14.25
2023-03-01T01:14:06.911Z,12.38
2023-03-01T01:16:34.894Z,12.18
2023-03-01T01:19:02.719Z,11.25
2023-03-01T01:21:30.636Z,14.07
2023-03-01T01:23:58.680Z,16.67
2023-03-01T01:26:36.298Z,14.23
2023-03-01T01:29:06.423Z,11.45
2023-03-01T01:31:36.451Z,11.98
2023-03-01T01:34:08.497Z,12.98
2023-03-01T01:36:37.280Z,11.10
2023-03-01T01:39:05.045Z,14.05
2023-03-01T01:41:32.675Z,14.52
2023-03-01T01:44:23.997Z,13.80
2023-03-01T01:46:58.327Z,11.35
2023-03-01T01:49:34.064Z,14.88
2023-03-01T01:52:18.327Z,15.70
2023-03-01T01:54:47.466Z,14.88
2023-03-01T01:57:47.538Z,12.93
2023-03-01T02:00:26.933Z,14.30
2023-03-01T02:03:03.109Z,11.35
2023-03-01T02:05:57.912Z,11.73
2023-03-01T02:08:31.375Z,11.25
2023-03-01T02:11:00.793Z,12.32
2023-03-01T02:13:28.970Z,15.00
2023-03-01T02:15:56.329Z,11.90
2023-03-01T02:18:25.894Z,14.27
2023-03-01T02:21:01.884Z,14.52
2023-03-01T02:23:30.876Z,13.27
2023-03-01T02:26:23.598Z,12.85
2023-03-01T02:28:51.562Z,14.13
2023-03-01T02:31:40.945Z,16.30
2023-03-01T02:34:15.349Z,13.38
2023-03-01T02:36:56.142Z,16.45
2023-03-01T02:39:34.338Z,13.52
2023-03-01T02:42:05.442Z,13.50
2023-03-01T02:44:32.770Z,13.45
2023-03-01T02:47:04.523Z,13.15
2023-03-01T02:49:35.938Z,13.27
2023-03-01T02:52:23.142Z,12.23
2023-03-01T02:55:13.871Z,14.32
2023-03-01T02:57:45.779Z,12.32
2023-03-01T03:00:26.148Z,13.90
2023-03-01T03:02:55.543Z,13.05
2023-03-01T03:05:27.862Z,15.13
2023-03-01T03:07:56.459Z,15.45
2023-03-01T03:10:33.679Z,12.80
2023-03-01T03:13:11.730Z,14.15
2023-03-01T03:15:40.151Z,12.93
2023-03-01T03:18:19.790Z,13.98
2023-03-01T03:20:47.421Z,12.27
2023-03-01T03:23:14.860Z,13.55
2023-03-01T03:25:41.839Z,13.75
2023-03-01T03:28:12.365Z,16.40
2023-03-01T03:30:42.213Z,15.05
2023-03-01T03:33:13.421Z,16.35
2023-03-01T03:35:50.351Z,15.13
2023-03-01T03:38:23.018Z,15.27
2023-03-01T03:41:02.251Z,20.60
2023-03-01T03:43:31.259Z,13.85
2023-03-01T03:45:58.534Z,14.57
2023-03-01T03:48:26.630Z,13.82
2023-03-01T03:50:56.604Z,13.35
2023-03-01T03:53:27.647Z,13.82
2023-03-01T03:55:55.126Z,16.08
2023-03-01T03:58:25.591Z,15.55
2023-03-01T04:00:59.218Z,14.60
2023-03-01T04:03:28.741Z,14.07
2023-03-01T04:05:59.963Z,18.88
2023-03-01T04:08:28.781Z,17.63
2023-03-01T04:11:22.805Z,20.05
2023-03-01T04:13:49.978Z,20.95
2023-03-01T04:16:17.662Z,17.98
2023-03-01T04:18:45.380Z,17.38
2023-03-01T04:21:13.270Z,16.15
2023-03-01T04:23:41.930Z,18.27
2023-03-01T04:26:09.425Z,19.88
2023-03-01T04:28:41.450Z,17.48
2023-03-01T04:31:17.682Z,17.23
2023-03-01T04:33:52.672Z,19.00
2023-03-01T04:36:23.724Z,19.33
2023-03-01T04:38:51.278Z,18.20
2023-03-01T04:41:21.541Z,17.45
2023-03-01T04:43:49.601Z,18.42
2023-03-01T04:46:23.010Z,24.63
2023-03-01T04:48:50.551Z,23.85
2023-03-01T04:51:19.309Z,23.88
2023-03-01T04:53:46.695Z,22.85
2023-03-01T04:56:15.042Z,22.55
2023-03-01T04:58:42.459Z,26.50
2023-03-01T05:01:19.992Z,25.30
2023-03-01T05:03:50.796Z,27.08
2023-03-01T05:06:19.229Z,21.85
2023-03-01T05:08:46.322Z,26.50
2023-03-01T05:11:14.110Z,22.13
2023-03-01T05:13:41.539Z,25.38
2023-03-01T05:16:12.694Z,22.05
2023-03-01T05:18:50.915Z,24.60
2023-03-01T05:21:18.278Z,23.25
2023-03-01T05:23:47.887Z,29.27
2023-03-01T05:26:27.779Z,28.40
2023-03-01T05:29:00.233Z,33.58
2023-03-01T05:31:29.094Z,30.73
2023-03-01T05:33:56.445Z,37.75
2023-03-01T05:50:08.698Z,41.55
2023-03-01T05:52:35.527Z,43.20
2023-03-01T05:55:02.386Z,49.85
2023-03-01T05:57:32.066Z,45.63
2023-03-01T05:59:58.942Z,38.75
2023-03-01T06:02:26.351Z,41.58
2023-03-01T06:04:53.303Z,41.30
2023-03-01T06:07:20.134Z,37.67
2023-03-01T06:09:46.992Z,35.88
2023-03-01T06:12:14.062Z,36.55
2023-03-01T06:14:40.904Z,43.25
2023-03-01T06:17:07.744Z,42.97
2023-03-01T06:19:34.561Z,41.83
2023-03-01T06:22:01.391Z,36.03
2023-03-01T06:24:29.753Z,41.35
2023-03-01T06:26:56.846Z,41.75
2023-03-01T06:29:24.051Z,39.40
2023-03-01T06:31:50.930Z,43.47
2023-03-01T06:34:22.663Z,36.40
2023-03-01T06:36:49.524Z,47.00
2023-03-01T06:39:17.675Z,39.95
2023-03-01T06:41:45.667Z,48.95
2023-03-01T06:44:12.612Z,51.80
2023-03-01T06:46:41.281Z,44.88
2023-03-01T06:49:10.365Z,43.83
2023-03-01T06:51:37.908Z,54.42
2023-03-01T06:54:06.041Z,55.80
2023-03-01T06:56:34.026Z,46.63
2023-03-01T06:59:01.050Z,53.55
2023-03-01T07:01:28.116Z,48.30
2023-03-01T07:03:55.046Z,54.13
2023-03-01T07:06:23.598Z,68.88
2023-03-01T07:08:50.537Z,67.43
2023-03-01T07:11:17.675Z,54.92
2023-03-01T07:13:44.530Z,60.60
2023-03-01T07:16:14.374Z,60.28
2023-03-01T07:18:41.769Z,58.88
2023-03-01T07:21:12.000Z,44.75
2023-03-01T07:23:38.888Z,51.35
2023-03-01T07:26:06.023Z,50.35
2023-03-01T07:28:36.861Z,46.75
2023-03-01T07:31:04.333Z,46.38
2023-03-01T07:33:31.410Z,44.60
2023-03-01T07:36:01.282Z,56.13
2023-03-01T07:38:32.908Z,45.58
2023-03-01T07:41:03.746Z,51.03
2023-03-01T07:43:32.103Z,50.15
2023-03-01T07:46:03.918Z,54.83
2023-03-01T07:48:32.665Z,49.72
2023-03-01T07:51:01.773Z,53.17
2023-03-01T07:53:29.491Z,64.22
2023-03-01T07:56:13.338Z,55.17
2023-03-01T07:58:43.509Z,55.63
2023-03-01T08:01:15.964Z,52.55
2023-03-01T08:03:44.610Z,56.83
2023-03-01T08:06:13.814Z,56.53
2023-03-01T08:08:41.064Z,55.58
2023-03-01T08:11:15.376Z,51.95
2023-03-01T08:13:43.306Z,56.25
2023-03-01T08:16:15.571Z,53.65
2023-03-01T08:18:44.300Z,54.13
2023-03-01T08:21:17.532Z,53.33
2023-03-01T08:23:45.367Z,52.67
2023-03-01T08:26:19.745Z,52.97
2023-03-01T08:28:48.615Z,54.47
2023-03-01T08:31:29.533Z,52.35
2023-03-01T08:34:01.246Z,54.75
2023-03-01T08:36:41.806Z,56.10
2023-03-01T08:39:11.550Z,53.00
2023-03-01T08:41:39.007Z,55.90
2023-03-01T08:44:06.427Z,50.78
2023-03-01T08:46:44.410Z,50.90
2023-03-01T08:49:19.962Z,52.08
2023-03-01T08:51:48.395Z,52.30
2023-03-01T08:54:20.181Z,45.33
2023-03-01T08:56:48.357Z,43.38
2023-03-01T08:59:18.166Z,45.05
2023-03-01T09:01:45.377Z,44.08
2023-03-01T09:04:13.645Z,46.03
2023-03-01T09:06:40.568Z,45.60
2023-03-01T09:09:16.044Z,45.20
2023-03-01T09:11:44.630Z,40.65
2023-03-01T09:14:13.601Z,38.80
2023-03-01T09:16:40.918Z,39.45
2023-03-01T09:19:07.888Z,41.08
2023-03-01T09:21:40.471Z,44.55
2023-03-01T09:24:16.869Z,40.90
2023-03-01T09:26:47.574Z,39.65
2023-03-01T09:29:16.986Z,44.20
2023-03-01T09:31:44.390Z,36.80
2023-03-01T09:34:11.540Z,36.67
2023-03-01T09:36:38.735Z,38.38
2023-03-01T09:39:09.203Z,34.53
2023-03-01T09:41:51.911Z,31.85
2023-03-01T09:44:39.587Z,30.50
2023-03-01T09:47:21.569Z,27.50
2023-03-01T09:50:14.260Z,28.23
2023-03-01T09:52:49.538Z,29.45
2023-03-01T09:55:30.845Z,28.73
2023-03-01T09:58:13.683Z,28.45
2023-03-01T10:00:48.242Z,28.00
2023-03-01T10:03:28.028Z,30.83
2023-03-01T10:06:27.612Z,30.55
2023-03-01T10:09:18.992Z,30.65
2023-03-01T10:11:57.473Z,29.80
2023-03-01T10:14:41.522Z,30.98
2023-03-01T10:17:46.405Z,31.00
2023-03-01T10:20:27.880Z,29.50
2023-03-01T10:22:56.217Z,31.20
2023-03-01T10:25:43.849Z,26.13
2023-03-01T10:28:25.271Z,27.58
2023-03-01T10:30:53.200Z,24.15
2023-03-01T10:33:42.901Z,34.05
2023-03-01T10:36:10.104Z,26.98
2023-03-01T10:38:58.717Z,27.55
2023-03-01T10:41:28.290Z,29.27
2023-03-01T10:43:59.178Z,28.83
2023-03-01T10:46:36.635Z,25.80
2023-03-01T10:49:24.178Z,24.85
2023-03-01T10:51:53.984Z,23.08
2023-03-01T10:54:22.124Z,25.33
2023-03-01T10:57:02.243Z,24.67
2023-03-01T10:59:37.678Z,26.67
2023-03-01T11:02:25.011Z,25.58
2023-03-01T11:05:20.559Z,21.40
2023-03-01T11:07:54.924Z,20.23
2023-03-01T11:10:33.293Z,19.70
2023-03-01T11:13:30.110Z,21.05
2023-03-01T11:16:13.457Z,20.73
2023-03-01T11:18:48.246Z,22.15
2023-03-01T11:21:17.361Z,22.02
2023-03-01T11:23:47.937Z,21.67
2023-03-01T11:26:19.190Z,19.27
2023-03-01T11:28:56.865Z,22.25
2023-03-01T11:31:26.235Z,21.95
2023-03-01T11:34:18.522Z,20.73
2023-03-01T11:37:00.261Z,22.10
2023-03-01T11:39:52.034Z,25.25
2023-03-01T11:42:51.154Z,22.40
2023-03-01T11:45:18.163Z,23.15
2023-03-01T11:48:15.859Z,21.55
2023-03-01T11:50:48.947Z,21.50
2023-03-01T11:53:44.816Z,21.60
2023-03-01T11:56:24.023Z,23.45
2023-03-01T11:59:35.626Z,23.73
2023-03-01T12:02:22.932Z,24.05
2023-03-01T12:05:18.009Z,22.77
2023-03-01T12:08:15.240Z,24.17
2023-03-01T12:11:36.824Z,21.52
2023-03-01T12:14:03.721Z,24.27
2023-03-01T12:16:45.542Z,22.75
2023-03-01T12:19:42.613Z,55.67
2023-03-01T12:22:35.790Z,23.30
2023-03-01T12:25:40.226Z,19.65
2023-03-01T12:28:38.686Z,20.10
2023-03-01T12:31:29.287Z,22.02
2023-03-01T12:34:31.657Z,20.70
2023-03-01T12:37:13.392Z,18.73
2023-03-01T12:40:27.837Z,21.60
2023-03-01T12:43:29.736Z,21.63
2023-03-01T12:46:53.641Z,21.17
2023-03-01T12:49:29.409Z,20.85
2023-03-01T12:52:10.610Z,21.60
2023-03-01T12:54:38.148Z,22.45
2023-03-01T12:57:38.800Z,20.88
2023-03-01T13:00:19.497Z,29.95
2023-03-01T13:02:55.904Z,20.52
2023-03-01T13:06:01.713Z,24.45
2023-03-01T13:09:05.164Z,21.33
2023-03-01T13:11:32.308Z,19.98
2023-03-01T13:14:36.285Z,30.42
2023-03-01T13:17:03.342Z,21.67
2023-03-01T13:19:32.268Z,20.83
2023-03-01T13:22:00.370Z,21.75
2023-03-01T13:24:39.655Z,24.50
2023-03-01T13:27:21.808Z,23.55
2023-03-01T13:30:04.260Z,23.77
2023-03-01T13:32:45.021Z,24.00
2023-03-01T13:35:20.991Z,28.23
2023-03-01T13:37:48.021Z,24.55
2023-03-01T13:40:19.198Z,25.23
2023-03-01T13:43:04.260Z,23.73
2023-03-01T13:45:41.811Z,24.85
2023-03-01T13:48:23.657Z,23.05
2023-03-01T13:50:58.945Z,25.30
2023-03-01T13:53:32.316Z,21.90
2023-03-01T13:56:10.393Z,24.15
2023-03-01T13:59:18.796Z,25.00
2023-03-01T14:01:57.231Z,26.30
2023-03-01T14:04:33.245Z,24.27
2023-03-01T14:07:25.339Z,25.40
2023-03-01T14:10:02.175Z,26.83
2023-03-01T14:12:54.268Z,23.77
2023-03-01T14:15:32.868Z,25.83
2023-03-01T14:18:02.530Z,24.90
2023-03-01T14:20:36.356Z,26.90
2023-03-01T14:23:12.982Z,28.45
2023-03-01T14:25:48.118Z,24.25
2023-03-01T14:28:25.324Z,23.02
2023-03-01T14:30:55.939Z,26.77
2023-03-01T14:33:29.988Z,24.08
2023-03-01T14:36:26.371Z,23.30
2023-03-01T14:38:53.742Z,24.65
2023-03-01T14:41:25.035Z,27.10
2023-03-01T14:44:01.918Z,23.48
2023-03-01T14:46:40.755Z,26.35
2023-03-01T14:49:23.114Z,26.88
2023-03-01T14:52:02.848Z,26.15
2023-03-01T14:54:45.729Z,25.50
2023-03-01T14:57:18.742Z,25.42
2023-03-01T15:02:20.850Z,25.38
2023-03-01T15:04:54.406Z,24.80
2023-03-01T15:07:23.014Z,30.45
2023-03-01T15:09:52.269Z,24.77
2023-03-01T15:12:31.292Z,27.52
2023-03-01T15:15:04.262Z,27.90
2023-03-01T15:17:34.843Z,33.65
2023-03-01T15:20:09.272Z,29.80
2023-03-01T15:22:37.377Z,31.55
2023-03-01T15:25:06.562Z,31.15
2023-03-01T15:27:33.586Z,26.02
2023-03-01T15:30:04.958Z,31.85
2023-03-01T15:32:36.568Z,27.88
2023-03-01T15:35:46.721Z,28.42
2023-03-01T15:39:00.225Z,28.73
2023-03-01T15:41:38.776Z,31.27
2023-03-01T15:44:41.680Z,30.20
2023-03-01T15:47:52.929Z,32.92
2023-03-01T15:50:30.947Z,31.23
2023-03-01T15:53:00.913Z,30.77
2023-03-01T15:55:34.560Z,30.45
2023-03-01T15:58:14.849Z,31.15
2023-03-01T16:00:59.466Z,29.92
2023-03-01T16:03:30.277Z,31.27
2023-03-01T16:05:57.975Z,31.38
2023-03-01T16:08:26.075Z,34.97
2023-03-01T16:10:55.499Z,31.35
2023-03-01T16:13:23.084Z,36.13
2023-03-01T16:15:54.129Z,34.90
2023-03-01T16:18:26.178Z,31.33
2023-03-01T16:20:59.782Z,34.37
2023-03-01T16:23:30.493Z,32.33
2023-03-01T16:26:02.157Z,33.60
2023-03-01T16:28:30.213Z,34.47
2023-03-01T16:30:58.897Z,35.25
2023-03-01T16:33:33.484Z,32.38
2023-03-01T16:36:10.777Z,36.60
2023-03-01T16:38:38.718Z,31.63
2023-03-01T16:41:06.969Z,33.97
2023-03-01T16:43:36.663Z,36.22
2023-03-01T16:46:15.598Z,32.25
2023-03-01T16:48:43.218Z,36.78
2023-03-01T16:51:12.366Z,35.38
2023-03-01T16:53:40.657Z,37.47
2023-03-01T16:56:11.346Z,38.80
2023-03-01T16:58:42.383Z,36.83
2023-03-01T17:01:14.703Z,35.25
2023-03-01T17:03:42.199Z,37.80
2023-03-01T17:06:17.914Z,43.75
2023-03-01T17:08:45.039Z,56.47
2023-03-01T17:11:19.072Z,53.47
2023-03-01T17:13:46.650Z,58.95
2023-03-01T17:16:18.046Z,57.42
2023-03-01T17:18:45.456Z,73.18
2023-03-01T17:21:14.752Z,51.40
2023-03-01T17:23:45.146Z,45.13
2023-03-01T17:26:13.720Z,46.42
2023-03-01T17:28:41.647Z,50.67
2023-03-01T17:31:08.750Z,52.13
2023-03-01T17:33:38.049Z,78.55
2023-03-01T17:36:06.057Z,111.10
2023-03-01T17:38:33.886Z,87.60
2023-03-01T17:41:01.907Z,89.22
2023-03-01T17:43:30.435Z,115.65
2023-03-01T17:45:58.591Z,104.70
2023-03-01T17:48:27.465Z,109.38
2023-03-01T17:50:56.784Z,84.05
2023-03-01T17:53:24.047Z,74.47
2023-03-01T17:56:02.418Z,70.88
2023-03-01T17:58:32.849Z,74.75
2023-03-01T18:01:17.863Z,57.70
2023-03-01T18:03:49.304Z,60.08
2023-03-01T18:06:27.314Z,91.40
2023-03-01T18:08:58.690Z,75.53
2023-03-01T18:11:26.497Z,104.78
2023-03-01T18:13:56.826Z,130.43
2023-03-01T18:16:24.626Z,94.72
2023-03-01T18:18:57.690Z,105.88
2023-03-01T18:21:25.536Z,82.18
2023-03-01T18:23:53.775Z,70.15
2023-03-01T18:26:27.922Z,69.53
2023-03-01T18:28:58.529Z,87.10
2023-03-01T18:31:26.528Z,119.82
2023-03-01T18:34:03.092Z,77.85
2023-03-01T18:36:36.279Z,57.10
2023-03-01T18:39:06.957Z,54.67
2023-03-01T18:41:35.971Z,54.42
2023-03-01T18:44:05.081Z,46.75
2023-03-01T18:46:37.906Z,70.32
2023-03-01T18:49:06.738Z,77.60
2023-03-01T18:51:37.073Z,68.75
2023-03-01T18:54:05.928Z,87.60
2023-03-01T18:56:35.543Z,81.85
2023-03-01T18:59:11.298Z,86.45
2023-03-01T19:01:40.889Z,76.57
2023-03-01T19:04:10.529Z,77.32
2023-03-01T19:06:39.082Z,71.97
2023-03-01T19:09:08.529Z,60.63
2023-03-01T19:11:36.449Z,53.55
2023-03-01T19:14:05.079Z,71.35
2023-03-01T19:16:35.208Z,78.78
2023-03-01T19:19:10.851Z,74.45
2023-03-01T19:21:42.576Z,69.10
2023-03-01T19:24:15.632Z,84.72
2023-03-01T19:26:42.844Z,70.20
2023-03-01T19:29:12.591Z,90.07
2023-03-01T19:31:41.725Z,84.97
2023-03-01T19:34:12.053Z,102.93
2023-03-01T19:36:44.198Z,110.70
2023-03-01T19:39:14.313Z,101.35
2023-03-01T19:41:43.237Z,104.80
2023-03-01T19:44:14.424Z,100.38
2023-03-01T19:46:43.858Z,104.53
2023-03-01T19:49:14.065Z,101.95
2023-03-01T19:51:43.513Z,107.07
2023-03-01T19:54:16.069Z,101.45
2023-03-01T19:56:46.642Z,101.95
2023-03-01T19:59:15.281Z,106.90
2023-03-01T20:01:44.136Z,103.43
2023-03-01T20:04:13.632Z,88.03
2023-03-01T20:06:42.367Z,80.18
2023-03-01T20:09:21.052Z,71.60
2023-03-01T20:11:49.723Z,68.75
2023-03-01T20:14:23.522Z,64.85
2023-03-01T20:16:53.643Z,64.57
2023-03-01T20:19:23.198Z,71.68
2023-03-01T20:21:50.517Z,62.20
2023-03-01T20:24:18.751Z,65.45
2023-03-01T20:26:46.594Z,62.78
2023-03-01T20:29:13.846Z,75.78
2023-03-01T20:31:43.004Z,73.07
2023-03-01T20:34:10.424Z,71.07
2023-03-01T20:36:39.871Z,71.85
2023-03-01T20:39:07.387Z,68.15
2023-03-01T20:41:36.417Z,73.38
2023-03-01T20:44:06.531Z,81.07
2023-03-01T20:46:35.936Z,90.78
2023-03-01T20:49:06.505Z,88.30
2023-03-01T20:51:33.721Z,93.70
2023-03-01T20:54:00.728Z,92.28
2023-03-01T20:56:27.782Z,90.82
2023-03-01T20:58:59.275Z,89.35
2023-03-01T21:01:27.466Z,88.07
2023-03-01T21:03:54.427Z,84.28
2023-03-01T21:06:21.613Z,82.05
2023-03-01T21:08:48.502Z,90.10
2023-03-01T21:11:17.070Z,90.88
2023-03-01T21:13:47.576Z,96.97
2023-03-01T21:16:15.583Z,95.63
2023-03-01T21:18:43.236Z,97.20
2023-03-01T21:21:15.693Z,92.93
2023-03-01T21:23:46.383Z,81.95
2023-03-01T21:26:25.602Z,83.45
2023-03-01T21:29:04.534Z,82.78
2023-03-01T21:31:35.245Z,68.22
2023-03-01T21:34:06.989Z,71.85
2023-03-01T21:36:35.166Z,70.82
2023-03-01T21:39:02.622Z,75.95
2023-03-01T21:41:33.654Z,74.95
2023-03-01T21:44:03.296Z,70.05
2023-03-01T21:46:36.641Z,63.58
2023-03-01T21:49:05.308Z,55.20
2023-03-01T21:51:33.484Z,49.75
2023-03-01T21:54:02.403Z,49.60
2023-03-01T21:56:34.232Z,44.33
2023-03-01T21:59:02.098Z,39.35
2023-03-01T22:01:29.443Z,37.92
2023-03-01T22:03:59.384Z,23.83
2023-03-01T22:06:35.528Z,27.13
2023-03-01T22:09:11.816Z,18.25
2023-03-01T22:11:44.992Z,17.08
2023-03-01T22:14:13.878Z,20.23
2023-03-01T22:16:45.641Z,13.85
2023-03-01T22:19:16.020Z,17.10
2023-03-01T22:21:46.611Z,17.17
2023-03-01T22:24:15.095Z,19.25
2023-03-01T22:26:46.093Z,19.52
2023-03-01T22:29:21.404Z,15.55
2023-03-01T22:31:50.505Z,14.25
2023-03-01T22:34:18.923Z,14.40
2023-03-01T22:36:46.683Z,14.88
2023-03-01T22:39:20.864Z,15.35
2023-03-01T22:41:49.211Z,13.32
2023-03-01T22:44:20.704Z,13.18
2023-03-01T22:46:47.948Z,16.10
2023-03-01T22:49:15.780Z,16.50
2023-03-01T22:51:44.650Z,14.98
2023-03-01T22:54:11.833Z,14.23
2023-03-01T22:56:42.269Z,15.95
2023-03-01T22:59:14.808Z,15.30
2023-03-01T23:01:47.628Z,13.35
2023-03-01T23:04:17.553Z,16.63
2023-03-01T23:06:56.216Z,14.80
2023-03-01T23:09:32.754Z,18.77
2023-03-01T23:12:02.844Z,16.70
2023-03-01T23:14:32.307Z,17.48
2023-03-01T23:17:01.636Z,16.23
2023-03-01T23:19:30.596Z,18.10
2023-03-01T23:21:57.998Z,14.35
2023-03-01T23:24:31.262Z,15.25
2023-03-01T23:27:02.052Z,19.85
2023-03-01T23:29:29.297Z,15.43
2023-03-01T23:31:58.172Z,16.13
2023-03-01T23:34:26.740Z,16.58
2023-03-01T23:36:55.178Z,16.90
2023-03-01T23:39:22.435Z,16.88
2023-03-01T23:41:49.616Z,14.23
2023-03-01T23:44:22.042Z,16.17
2023-03-01T23:46:50.504Z,15.43
2023-03-01T23:49:21.711Z,16.73
2023-03-01T23:51:51.893Z,16.67
2023-03-01T23:54:23.541Z,21.55
2023-03-01T23:56:51.348Z,18.70
2023-03-01T23:59:23.632Z,17.85
